createdAt,value
2022-10-20T00:01:12.258Z,99.90
2022-10-20T00:03:39.693Z,99.90
2022-10-20T00:06:13.615Z,99.90
2022-10-20T00:08:42.074Z,99.90
2022-10-20T00:11:11.164Z,99.90
2022-10-20T00:13:39.789Z,99.90
2022-10-20T00:16:07.809Z,99.90
2022-10-20T00:18:35.481Z,99.90
2022-10-20T00:21:16.174Z,99.90
2022-10-20T00:23:43.566Z,99.90
2022-10-20T00:26:16.556Z,99.90
2022-10-20T00:28:44.909Z,99.90
2022-10-20T00:31:12.736Z,99.90
2022-10-20T00:33:57.605Z,99.90
2022-10-20T00:36:25.204Z,99.90
2022-10-20T00:38:57.880Z,99.90
2022-10-20T00:41:25.326Z,99.90
2022-10-20T00:43:53.898Z,99.90
2022-10-20T00:46:43.561Z,99.90
2022-10-20T00:49:22.645Z,99.90
2022-10-20T00:51:52.681Z,99.90
2022-10-20T00:54:25.349Z,99.90
2022-10-20T00:56:55.520Z,99.90
2022-10-20T00:59:28.609Z,99.90
2022-10-20T01:01:57.023Z,99.90
2022-10-20T01:04:26.181Z,99.90
2022-10-20T01:06:53.696Z,99.90
2022-10-20T01:09:21.334Z,99.90
2022-10-20T01:12:26.668Z,99.90
2022-10-20T01:18:22.945Z,99.90
2022-10-20T01:21:11.576Z,99.90
2022-10-20T01:23:51.132Z,99.90
2022-10-20T01:26:42.879Z,99.90
2022-10-20T01:29:19.379Z,99.90
2022-10-20T01:32:15.849Z,99.90
2022-10-20T01:34:48.025Z,99.90
2022-10-20T01:37:50.926Z,99.90
2022-10-20T01:40:40.684Z,99.90
2022-10-20T01:43:12.286Z,99.90
2022-10-20T01:45:44.760Z,99.90
2022-10-20T01:48:14.295Z,99.90
2022-10-20T01:50:43.310Z,99.90
2022-10-20T01:53:10.627Z,99.90
2022-10-20T01:55:39.065Z,99.90
2022-10-20T01:58:15.042Z,99.90
2022-10-20T02:00:45.128Z,99.90
2022-10-20T02:03:34.673Z,99.90
2022-10-20T02:06:25.910Z,99.90
2022-10-20T02:08:59.905Z,99.90
2022-10-20T02:11:53.423Z,99.90
2022-10-20T02:14:22.809Z,99.90
2022-10-20T02:16:55.496Z,99.90
2022-10-20T02:19:25.782Z,99.90
2022-10-20T02:21:56.385Z,99.90
2022-10-20T02:24:29.529Z,99.90
2022-10-20T02:27:02.043Z,99.90
2022-10-20T02:29:34.894Z,99.90
2022-10-20T02:32:02.829Z,99.90
2022-10-20T02:34:30.169Z,99.90
2022-10-20T02:36:59.160Z,99.90
2022-10-20T02:39:27.138Z,99.90
2022-10-20T02:41:54.966Z,99.90
2022-10-20T02:44:22.992Z,99.90
2022-10-20T02:46:50.353Z,99.90
2022-10-20T02:49:17.942Z,99.90
2022-10-20T02:51:45.217Z,99.90
2022-10-20T02:54:12.558Z,99.90
2022-10-20T02:56:39.839Z,99.90
2022-10-20T02:59:07.126Z,99.90
2022-10-20T03:01:34.512Z,99.90
2022-10-20T03:04:01.845Z,99.90
2022-10-20T03:06:29.141Z,99.90
2022-10-20T03:08:56.595Z,99.90
2022-10-20T03:11:24.276Z,99.90
2022-10-20T03:13:51.513Z,99.90
2022-10-20T03:16:18.919Z,99.90
2022-10-20T03:18:46.164Z,99.90
2022-10-20T03:21:13.787Z,99.90
2022-10-20T03:23:41.081Z,99.90
2022-10-20T03:26:10.847Z,99.90
2022-10-20T03:28:39.020Z,99.90
2022-10-20T03:31:07.053Z,99.90
2022-10-20T03:33:34.675Z,99.90
2022-10-20T03:36:02.109Z,99.90
2022-10-20T03:38:29.437Z,99.90
2022-10-20T03:40:56.846Z,99.90
2022-10-20T03:43:24.185Z,99.90
2022-10-20T03:45:51.585Z,99.90
2022-10-20T03:48:18.894Z,99.90
2022-10-20T03:50:46.208Z,99.90
2022-10-20T03:53:14.191Z,99.90
2022-10-20T03:55:41.441Z,99.90
2022-10-20T03:58:08.777Z,99.90
2022-10-20T04:00:36.196Z,99.90
2022-10-20T04:03:03.705Z,99.90
2022-10-20T04:05:31.234Z,99.90
2022-10-20T04:07:58.591Z,99.90
2022-10-20T04:10:25.876Z,99.90
2022-10-20T04:12:53.165Z,99.90
2022-10-20T04:15:20.564Z,99.90
2022-10-20T04:17:47.877Z,99.90
2022-10-20T04:20:15.209Z,99.90
2022-10-20T04:22:42.573Z,99.90
2022-10-20T04:25:12.086Z,99.90
2022-10-20T04:27:40.258Z,99.90
2022-10-20T04:30:08.779Z,99.90
2022-10-20T04:32:36.248Z,99.90
2022-10-20T04:35:03.992Z,99.90
2022-10-20T04:37:31.484Z,99.90
2022-10-20T04:39:58.856Z,99.90
2022-10-20T04:42:26.194Z,99.90
2022-10-20T04:44:53.590Z,99.90
2022-10-20T04:47:21.689Z,99.90
2022-10-20T04:49:49.037Z,99.90
2022-10-20T04:52:17.343Z,99.90
2022-10-20T04:54:44.694Z,99.90
2022-10-20T04:57:12.037Z,99.90
2022-10-20T04:59:39.314Z,99.90
2022-10-20T05:02:06.670Z,99.90
2022-10-20T05:04:34.084Z,99.90
2022-10-20T05:07:01.391Z,99.90
2022-10-20T05:09:28.882Z,99.90
2022-10-20T05:11:56.271Z,99.90
2022-10-20T05:14:23.866Z,99.90
2022-10-20T05:16:51.592Z,99.90
2022-10-20T05:19:18.887Z,99.90
2022-10-20T05:21:46.172Z,99.90
2022-10-20T05:24:20.834Z,99.90
2022-10-20T05:26:49.533Z,99.90
2022-10-20T05:29:17.001Z,99.90
2022-10-20T05:31:44.693Z,99.90
2022-10-20T05:34:12.474Z,99.90
2022-10-20T05:36:39.944Z,99.90
2022-10-20T05:39:07.275Z,99.90
2022-10-20T05:41:38.029Z,99.90
2022-10-20T05:44:09.001Z,99.90
2022-10-20T05:46:41.255Z,99.90
2022-10-20T05:49:16.607Z,99.90
2022-10-20T05:51:45.642Z,99.90
2022-10-20T05:54:14.028Z,99.90
2022-10-20T05:56:41.695Z,99.90
2022-10-20T05:59:10.211Z,99.90
2022-10-20T06:01:50.469Z,99.90
2022-10-20T06:04:23.575Z,99.90
2022-10-20T06:06:52.538Z,99.90
2022-10-20T06:09:22.026Z,99.90
2022-10-20T06:11:49.527Z,99.90
2022-10-20T06:14:17.466Z,99.90
2022-10-20T06:16:44.928Z,99.90
2022-10-20T06:19:12.252Z,99.90
2022-10-20T06:21:39.793Z,99.90
2022-10-20T06:24:07.490Z,99.90
2022-10-20T06:26:38.920Z,99.90
2022-10-20T06:29:09.646Z,99.90
2022-10-20T06:31:42.055Z,99.90
2022-10-20T06:34:13.377Z,99.90
2022-10-20T06:36:42.167Z,99.90
2022-10-20T06:39:12.975Z,99.90
2022-10-20T06:41:40.985Z,99.90
2022-10-20T06:44:21.004Z,99.90
2022-10-20T06:46:49.040Z,99.90
2022-10-20T06:49:16.363Z,99.90
2022-10-20T06:51:43.670Z,99.90
2022-10-20T06:54:11.041Z,99.90
2022-10-20T06:56:39.576Z,99.90
2022-10-20T06:59:07.011Z,99.90
2022-10-20T07:01:36.195Z,99.90
2022-10-20T07:04:10.475Z,99.90
2022-10-20T07:06:40.360Z,99.90
2022-10-20T07:09:11.476Z,99.90
2022-10-20T07:11:39.008Z,99.90
2022-10-20T07:14:06.350Z,99.90
2022-10-20T07:16:35.026Z,99.90
2022-10-20T07:19:04.477Z,99.90
2022-10-20T07:21:36.527Z,99.90
2022-10-20T07:24:06.674Z,99.90
2022-10-20T07:26:36.452Z,99.90
2022-10-20T07:29:04.862Z,99.90
2022-10-20T07:31:35.913Z,99.90
2022-10-20T07:34:23.771Z,99.90
2022-10-20T07:36:52.404Z,99.90
2022-10-20T07:39:19.794Z,99.90
2022-10-20T07:41:48.158Z,99.90
2022-10-20T07:44:16.686Z,99.90
2022-10-20T07:46:44.737Z,99.90
2022-10-20T07:51:59.445Z,99.90
2022-10-20T07:54:26.880Z,99.90
2022-10-20T07:56:54.236Z,99.90
2022-10-20T07:59:21.608Z,99.90
2022-10-20T08:01:49.040Z,99.90
2022-10-20T08:04:16.419Z,99.90
2022-10-20T08:06:43.811Z,99.90
2022-10-20T08:09:11.168Z,99.90
2022-10-20T08:11:38.503Z,99.90
2022-10-20T08:14:05.777Z,99.90
2022-10-20T08:19:21.322Z,99.90
2022-10-20T08:21:48.730Z,99.90
2022-10-20T08:24:16.088Z,99.90
2022-10-20T08:26:43.443Z,99.90
2022-10-20T08:29:12.276Z,99.90
2022-10-20T08:31:40.251Z,99.90
2022-10-20T08:34:08.167Z,99.90
2022-10-20T08:36:37.202Z,99.90
2022-10-20T08:39:06.244Z,99.90
2022-10-20T08:42:02.664Z,99.90
2022-10-20T08:44:35.024Z,99.90
2022-10-20T08:47:05.141Z,99.90
2022-10-20T08:49:35.026Z,99.90
2022-10-20T08:52:02.596Z,99.90
2022-10-20T08:54:34.107Z,99.90
2022-10-20T08:57:01.479Z,99.90
2022-10-20T08:59:34.694Z,99.90
2022-10-20T09:02:03.823Z,99.90
2022-10-20T09:04:36.061Z,99.90
2022-10-20T09:07:10.164Z,99.90
2022-10-20T09:09:37.733Z,99.90
2022-10-20T09:12:07.707Z,99.90
2022-10-20T09:14:37.313Z,99.90
2022-10-20T09:17:09.125Z,99.90
2022-10-20T09:19:39.285Z,99.90
2022-10-20T09:22:07.453Z,99.90
2022-10-20T09:24:36.152Z,99.90
2022-10-20T09:27:33.421Z,99.90
2022-10-20T09:30:35.592Z,99.90
2022-10-20T09:33:31.529Z,99.90
2022-10-20T09:36:04.202Z,99.90
2022-10-20T09:38:35.181Z,99.90
2022-10-20T09:41:07.019Z,99.90
2022-10-20T09:43:34.461Z,99.90
2022-10-20T09:46:06.798Z,99.90
2022-10-20T09:48:41.909Z,99.90
2022-10-20T09:51:15.934Z,99.90
2022-10-20T09:54:06.168Z,99.90
2022-10-20T09:56:38.816Z,99.90
2022-10-20T09:59:29.301Z,99.90
2022-10-20T10:01:59.529Z,99.90
2022-10-20T10:04:36.216Z,99.90
2022-10-20T10:07:25.116Z,99.90
2022-10-20T10:10:05.432Z,99.20
2022-10-20T10:12:36.123Z,96.80
2022-10-20T10:15:28.934Z,95.00
2022-10-20T10:17:57.471Z,92.30
2022-10-20T10:20:27.860Z,90.10
2022-10-20T10:23:27.367Z,85.70
2022-10-20T10:25:59.156Z,81.50
2022-10-20T10:28:40.125Z,76.00
2022-10-20T10:31:21.467Z,74.00
2022-10-20T10:33:52.880Z,72.80
2022-10-20T10:36:35.848Z,72.90
2022-10-20T10:39:07.003Z,69.80
2022-10-20T10:41:42.821Z,67.00
2022-10-20T10:44:13.170Z,66.20
2022-10-20T10:46:47.603Z,63.80
2022-10-20T10:49:42.062Z,61.80
2022-10-20T10:52:28.652Z,59.90
2022-10-20T10:55:11.736Z,58.20
2022-10-20T10:57:47.634Z,57.10
2022-10-20T11:00:40.641Z,56.60
2022-10-20T11:03:16.993Z,55.30
2022-10-20T11:06:03.714Z,54.30
2022-10-20T11:09:00.028Z,54.10
2022-10-20T11:11:49.744Z,52.80
2022-10-20T11:14:28.986Z,52.90
2022-10-20T11:17:21.912Z,53.30
2022-10-20T11:20:14.422Z,51.70
2022-10-20T11:22:41.638Z,51.20
2022-10-20T11:25:29.837Z,50.60
2022-10-20T11:27:58.899Z,49.60
2022-10-20T11:30:27.514Z,50.90
2022-10-20T11:33:17.067Z,52.30
2022-10-20T11:36:03.295Z,52.30
2022-10-20T11:38:46.998Z,51.50
2022-10-20T11:41:35.333Z,51.20
2022-10-20T11:44:12.384Z,51.00
2022-10-20T11:46:52.897Z,50.30
2022-10-20T11:49:20.539Z,50.80
2022-10-20T11:52:14.205Z,50.90
2022-10-20T11:55:04.877Z,50.70
2022-10-20T11:57:43.877Z,52.80
2022-10-20T12:00:32.677Z,53.10
2022-10-20T12:03:02.779Z,53.80
2022-10-20T12:05:45.961Z,53.50
2022-10-20T12:08:54.014Z,54.00
2022-10-20T12:11:48.052Z,54.90
2022-10-20T12:14:15.496Z,54.70
2022-10-20T12:16:52.138Z,54.00
2022-10-20T12:19:25.229Z,54.10
2022-10-20T12:21:58.051Z,54.20
2022-10-20T12:24:35.314Z,54.60
2022-10-20T12:27:17.494Z,54.60
2022-10-20T12:29:44.807Z,55.80
2022-10-20T12:32:55.146Z,56.20
2022-10-20T12:35:22.377Z,55.70
2022-10-20T12:38:04.548Z,54.90
2022-10-20T12:40:41.067Z,56.60
2022-10-20T12:43:29.875Z,56.70
2022-10-20T12:46:03.320Z,58.70
2022-10-20T12:48:34.905Z,60.20
2022-10-20T12:51:06.392Z,62.40
2022-10-20T12:53:34.354Z,65.40
2022-10-20T12:56:07.782Z,68.00
2022-10-20T12:58:56.594Z,69.70
2022-10-20T13:01:24.015Z,70.30
2022-10-20T13:03:52.724Z,70.40
2022-10-20T13:06:40.853Z,70.90
2022-10-20T13:09:21.231Z,71.90
2022-10-20T13:12:00.176Z,73.00
2022-10-20T13:14:41.493Z,73.40
2022-10-20T13:17:35.262Z,73.80
2022-10-20T13:20:27.246Z,73.50
2022-10-20T13:22:55.794Z,73.10
2022-10-20T13:25:38.454Z,72.80
2022-10-20T13:28:24.843Z,73.60
2022-10-20T13:31:08.981Z,72.90
2022-10-20T13:34:03.198Z,74.00
2022-10-20T13:36:46.706Z,74.00
2022-10-20T13:39:38.985Z,74.90
2022-10-20T13:42:09.288Z,75.40
2022-10-20T13:45:13.920Z,75.40
2022-10-20T13:48:05.617Z,76.00
2022-10-20T13:50:39.761Z,76.20
2022-10-20T13:53:20.681Z,78.10
2022-10-20T13:56:08.424Z,78.40
2022-10-20T13:58:35.879Z,79.20
2022-10-20T14:01:06.206Z,80.40
2022-10-20T14:03:54.069Z,80.80
2022-10-20T14:06:27.236Z,80.70
2022-10-20T14:08:55.029Z,80.30
2022-10-20T14:11:22.865Z,81.00
2022-10-20T14:13:50.690Z,81.10
2022-10-20T14:16:25.074Z,81.60
2022-10-20T14:19:05.770Z,81.50
2022-10-20T14:21:49.294Z,82.60
2022-10-20T14:24:40.330Z,83.10
2022-10-20T14:27:15.728Z,82.90
2022-10-20T14:29:44.038Z,83.40
2022-10-20T14:32:18.674Z,83.80
2022-10-20T14:35:10.631Z,84.40
2022-10-20T14:37:43.420Z,84.60
2022-10-20T14:40:30.968Z,84.90
2022-10-20T14:43:21.165Z,85.40
2022-10-20T14:45:57.785Z,85.70
2022-10-20T14:48:41.272Z,85.70
2022-10-20T14:51:27.907Z,86.50
2022-10-20T14:54:15.053Z,86.50
2022-10-20T14:57:01.986Z,86.80
2022-10-20T14:59:32.176Z,87.40
2022-10-20T15:02:09.636Z,88.20
2022-10-20T15:04:39.213Z,89.20
2022-10-20T15:07:28.546Z,89.50
2022-10-20T15:10:09.368Z,90.00
2022-10-20T15:12:36.837Z,90.10
2022-10-20T15:15:08.013Z,90.00
2022-10-20T15:17:46.404Z,90.20
2022-10-20T15:20:33.385Z,90.30
2022-10-20T15:23:18.676Z,90.60
2022-10-20T15:25:45.931Z,90.40
2022-10-20T15:28:52.001Z,90.50
2022-10-20T15:31:29.079Z,90.70
2022-10-20T15:33:57.896Z,90.80
2022-10-20T15:36:29.752Z,91.20
2022-10-20T15:38:57.263Z,91.50
2022-10-20T15:41:30.093Z,91.70
2022-10-20T15:44:13.434Z,92.00
2022-10-20T15:46:42.205Z,92.20
2022-10-20T15:49:09.828Z,92.50
2022-10-20T15:51:40.130Z,92.50
2022-10-20T15:54:07.932Z,92.90
2022-10-20T15:56:35.492Z,93.10
2022-10-20T15:59:03.168Z,93.20
2022-10-20T16:01:30.670Z,93.30
2022-10-20T16:03:58.373Z,93.30
2022-10-20T16:06:25.719Z,93.60
2022-10-20T16:08:53.140Z,93.80
2022-10-20T16:11:21.365Z,94.00
2022-10-20T16:13:49.163Z,94.20
2022-10-20T16:16:19.431Z,94.40
2022-10-20T16:18:47.163Z,94.60
2022-10-20T16:21:14.553Z,94.70
2022-10-20T16:23:43.998Z,94.90
2022-10-20T16:26:14.352Z,95.10
2022-10-20T16:28:41.972Z,95.40
2022-10-20T16:31:11.511Z,95.60
2022-10-20T16:33:38.932Z,96.00
2022-10-20T16:36:08.967Z,96.20
2022-10-20T16:38:39.913Z,96.50
2022-10-20T16:41:10.338Z,96.70
2022-10-20T16:43:43.485Z,96.90
2022-10-20T16:46:12.265Z,97.30
2022-10-20T16:48:42.558Z,97.40
2022-10-20T16:51:12.243Z,97.60
2022-10-20T16:53:39.583Z,98.00
2022-10-20T16:56:07.650Z,98.30
2022-10-20T16:58:35.427Z,98.50
2022-10-20T17:01:09.693Z,98.70
2022-10-20T17:03:41.290Z,98.80
2022-10-20T17:06:09.746Z,98.90
2022-10-20T17:08:38.204Z,99.10
2022-10-20T17:11:09.199Z,99.40
2022-10-20T17:13:38.279Z,99.60
2022-10-20T17:16:14.128Z,99.70
2022-10-20T17:18:41.488Z,99.90
2022-10-20T17:21:09.537Z,99.90
2022-10-20T17:23:41.797Z,99.90
2022-10-20T17:26:14.308Z,99.90
2022-10-20T17:28:42.174Z,99.90
2022-10-20T17:31:11.874Z,99.90
2022-10-20T17:33:39.627Z,99.90
2022-10-20T17:36:17.747Z,99.90
2022-10-20T17:38:55.913Z,99.90
2022-10-20T17:41:34.080Z,99.90
2022-10-20T17:44:10.387Z,99.90
2022-10-20T17:46:43.458Z,99.90
2022-10-20T17:49:15.548Z,99.90
2022-10-20T17:51:44.297Z,99.90
2022-10-20T17:54:11.662Z,99.90
2022-10-20T17:56:40.175Z,99.90
2022-10-20T17:59:08.837Z,99.90
2022-10-20T18:01:38.645Z,99.90
2022-10-20T18:04:12.152Z,99.90
2022-10-20T18:06:40.808Z,99.90
2022-10-20T18:09:11.248Z,99.90
2022-10-20T18:11:40.522Z,99.90
2022-10-20T18:14:07.896Z,99.90
2022-10-20T18:16:37.042Z,99.90
2022-10-20T18:19:05.726Z,99.90
2022-10-20T18:21:33.763Z,99.90
2022-10-20T18:24:03.950Z,99.90
2022-10-20T18:26:33.501Z,99.90
2022-10-20T18:29:02.237Z,99.90
2022-10-20T18:31:31.849Z,99.90
2022-10-20T18:34:05.746Z,99.90
2022-10-20T18:36:36.897Z,99.90
2022-10-20T18:39:07.390Z,99.90
2022-10-20T18:41:38.258Z,99.90
2022-10-20T18:44:09.984Z,99.90
2022-10-20T18:46:37.830Z,99.90
2022-10-20T18:49:09.525Z,99.90
2022-10-20T18:51:37.152Z,99.90
2022-10-20T18:54:06.336Z,99.90
2022-10-20T18:56:34.552Z,99.90
2022-10-20T18:59:04.352Z,99.90
2022-10-20T19:01:34.977Z,99.90
2022-10-20T19:04:03.784Z,99.90
2022-10-20T19:06:42.698Z,99.90
2022-10-20T19:09:14.561Z,99.90
2022-10-20T19:11:42.306Z,99.90
2022-10-20T19:14:11.412Z,99.90
2022-10-20T19:16:39.750Z,99.90
2022-10-20T19:19:08.600Z,99.90
2022-10-20T19:21:36.875Z,99.90
2022-10-20T19:24:11.634Z,99.90
2022-10-20T19:26:52.668Z,99.90
2022-10-20T19:29:30.595Z,99.90
2022-10-20T19:32:01.143Z,99.90
2022-10-20T19:34:39.638Z,99.90
2022-10-20T19:37:08.274Z,99.90
2022-10-20T19:39:40.373Z,99.90
2022-10-20T19:42:08.240Z,99.90
2022-10-20T19:44:36.723Z,99.90
2022-10-20T19:47:05.825Z,99.90
2022-10-20T19:49:34.234Z,99.90
2022-10-20T19:52:02.385Z,99.90
2022-10-20T19:54:30.344Z,99.90
2022-10-20T19:56:57.903Z,99.90
2022-10-20T19:59:26.658Z,99.90
2022-10-20T20:01:54.627Z,99.90
2022-10-20T20:04:22.530Z,99.90
2022-10-20T20:06:50.521Z,99.90
2022-10-20T20:09:18.462Z,99.90
2022-10-20T20:11:46.544Z,99.90
2022-10-20T20:14:18.439Z,99.90
2022-10-20T20:16:47.189Z,99.90
2022-10-20T20:19:16.683Z,99.90
2022-10-20T20:21:44.878Z,99.90
2022-10-20T20:24:13.564Z,99.90
2022-10-20T20:26:41.003Z,99.90
2022-10-20T20:29:08.322Z,99.90
2022-10-20T20:31:35.662Z,99.90
2022-10-20T20:34:03.123Z,99.90
2022-10-20T20:36:30.906Z,99.90
2022-10-20T20:38:59.567Z,99.90
2022-10-20T20:41:28.421Z,99.90
2022-10-20T20:43:55.963Z,99.90
2022-10-20T20:46:24.570Z,99.90
2022-10-20T20:48:51.871Z,99.90
2022-10-20T20:51:19.234Z,99.90
2022-10-20T20:53:46.978Z,99.90
2022-10-20T20:56:16.284Z,99.90
2022-10-20T20:58:49.030Z,99.90
2022-10-20T21:01:27.867Z,99.90
2022-10-20T21:03:57.411Z,99.90
2022-10-20T21:06:33.308Z,99.90
2022-10-20T21:09:08.746Z,99.90
2022-10-20T21:11:36.675Z,99.90
2022-10-20T21:14:04.549Z,99.90
2022-10-20T21:16:34.402Z,99.90
2022-10-20T21:19:05.685Z,99.90
2022-10-20T21:21:35.661Z,99.90
2022-10-20T21:24:04.504Z,99.90
2022-10-20T21:26:32.816Z,99.90
2022-10-20T21:29:00.242Z,99.90
2022-10-20T21:31:29.356Z,99.90
2022-10-20T21:33:59.158Z,99.90
2022-10-20T21:36:28.141Z,99.90
2022-10-20T21:38:55.920Z,99.90
2022-10-20T21:41:32.432Z,99.90
2022-10-20T21:44:01.814Z,99.90
2022-10-20T21:46:32.033Z,99.90
2022-10-20T21:49:01.761Z,99.90
2022-10-20T21:51:34.534Z,99.90
2022-10-20T21:54:07.396Z,99.90
2022-10-20T21:56:40.150Z,99.90
2022-10-20T21:59:26.608Z,99.90
2022-10-20T22:01:56.820Z,99.90
2022-10-20T22:04:26.499Z,99.90
2022-10-20T22:06:54.712Z,99.90
2022-10-20T22:09:22.697Z,99.90
2022-10-20T22:11:52.704Z,99.90
2022-10-20T22:14:20.079Z,99.90
2022-10-20T22:16:47.748Z,99.90
2022-10-20T22:19:18.379Z,99.90
2022-10-20T22:21:47.712Z,99.90
2022-10-20T22:24:16.466Z,99.90
2022-10-20T22:26:43.728Z,99.90
2022-10-20T22:29:11.620Z,99.90
2022-10-20T22:31:39.773Z,99.90
2022-10-20T22:34:08.079Z,99.90
2022-10-20T22:36:35.602Z,99.90
2022-10-20T22:39:03.303Z,99.90
2022-10-20T22:41:30.655Z,99.90
2022-10-20T22:43:58.582Z,99.90
2022-10-20T22:46:26.066Z,99.90
2022-10-20T22:48:53.709Z,99.90
2022-10-20T22:51:21.241Z,99.90
2022-10-20T22:53:48.720Z,99.90
2022-10-20T22:56:19.799Z,99.90
2022-10-20T22:58:48.185Z,99.90
2022-10-20T23:01:18.128Z,99.90
2022-10-20T23:03:46.621Z,99.90
2022-10-20T23:06:20.500Z,99.90
2022-10-20T23:08:51.746Z,99.90
2022-10-20T23:11:19.697Z,99.90
2022-10-20T23:13:47.700Z,99.90
2022-10-20T23:16:15.566Z,99.90
2022-10-20T23:18:43.058Z,99.90
2022-10-20T23:21:11.910Z,99.90
2022-10-20T23:23:39.248Z,99.90
2022-10-20T23:26:07.918Z,99.90
2022-10-20T23:28:36.586Z,99.90
2022-10-20T23:31:09.570Z,99.90
2022-10-20T23:33:38.025Z,99.90
2022-10-20T23:36:05.811Z,99.90
2022-10-20T23:38:33.347Z,99.90
2022-10-20T23:41:00.694Z,99.90
2022-10-20T23:43:28.335Z,99.90
2022-10-20T23:45:55.637Z,99.90
2022-10-20T23:48:22.995Z,99.90
2022-10-20T23:50:50.524Z,99.90
2022-10-20T23:53:18.088Z,99.90
2022-10-20T23:55:45.560Z,99.90
2022-10-20T23:58:13.091Z,99.90
